EGGD Airport Information

Runway Information
Runway 09 Length 6597 ft width 147 ft
Elevation 613 ft Threshold ft Heading 86
Runway 27 Length 6597 ft Width 147 ft
Elevation 601 ft Threshold 443 ft Heading 266
Airport Frequencies
Type ATIS Name ATIS Frequency 126.025 MHZ
Type GND Name GND Frequency 121.925 MHZ
Type RDR Name RDR Frequency 136.075 MHZ
Type TWR Name TWR Frequency 133.85 MHZ
Airport Navaids
Type NDB Name Bristol Frequency 414 KHZ
Airport Weather Information & NOTAM
ADDS - METARS form results

(1641 UTC 07 July 2022)
Data provider http://aviationweather.gov/metar/data/
 
METAR text: EGGD 071620Z AUTO 33006KT 270V070 9999 NCD 21/14 Q1032
Conditions at: EGGD (BRISTOL/LULSGATE, GB) observed 1620 UTC 07 July 2022
Temperature: 21.0°C (70°F)
Dewpoint: 14.0°C (57°F) [RH = 64%]
Pressure (altimeter): 30.47 inches Hg (1032.0 mb)
Winds: from the NNW (330 degrees) at 7 MPH (6 knots; 3.1 m/s)
Visibility: 6 or more miles (10+ km)
Ceiling: at least 12,000 feet AGL
Clouds: sky clear below 12,000 feet AGL
Weather: no significant weather observed at this time

METAR text: EGGD 071550Z AUTO 02004KT 330V100 9999 NCD 21/13 Q1032
Conditions at: EGGD (BRISTOL/LULSGATE, GB) observed 1550 UTC 07 July 2022
Temperature: 21.0°C (70°F)
Dewpoint: 13.0°C (55°F) [RH = 60%]
Pressure (altimeter): 30.47 inches Hg (1032.0 mb)
Winds: from the NNE (20 degrees) at 5 MPH (4 knots; 2.1 m/s)
Visibility: 6 or more miles (10+ km)
Ceiling: at least 12,000 feet AGL
Clouds: sky clear below 12,000 feet AGL
Weather: no significant weather observed at this time

Forecast for: EGGD (BRISTOL/LULSGATE, GB)
Text: TAF EGGD 071100Z 0712/0812 02008KT 9999 SCT028
Forecast period: 1200 UTC 07 July 2022 to 1200 UTC 08 July 2022
Forecast type: FROM: standard forecast or significant change
Winds: from the NNE (20 degrees) at 9 MPH (8 knots; 4.1 m/s)
Visibility: 6 or more miles (10+ km)
Ceiling: at least 12,000 feet AGL
Clouds: scattered clouds at 2800 feet AGL
Weather: no significant weather forecast for this period
Text: PROB30
Forecast period: 1200 to 1300 UTC 07 July 2022
Forecast type: TEMPORARY: The following changes expected for less than half the time period
Visibility: missing
Ceiling: 1400 feet AGL
Clouds: broken clouds at 1400 feet AGL
Weather: no significant weather forecast for this period
Text: TEMPO 0712/0713 BKN014
Forecast period: 1400 to 2100 UTC 07 July 2022
Forecast type: PROBABLE: 30 percent likelihood of the following during this time
Winds: from the W (260 degrees) at 12 MPH (10 knots; 5.1 m/s)
Visibility: missing
Ceiling: unknown
Clouds: missing
Weather: no significant weather forecast for this period